sensor_id;sensor_type;location;lat;lon;timestamp;P1;durP1;ratioP1;P2;durP2;ratioP2
56670;SDS011;42545;50.054;8.306;2023-06-14T00:01:44;2.10;;;1.83;;
56670;SDS011;42545;50.054;8.306;2023-06-14T00:04:10;1.88;;;1.65;;
56670;SDS011;42545;50.054;8.306;2023-06-14T00:06:37;1.55;;;1.45;;
56670;SDS011;42545;50.054;8.306;2023-06-14T00:09:04;1.98;;;1.60;;
56670;SDS011;42545;50.054;8.306;2023-06-14T00:11:33;1.48;;;1.38;;
56670;SDS011;42545;50.054;8.306;2023-06-14T00:14:02;1.50;;;1.30;;
56670;SDS011;42545;50.054;8.306;2023-06-14T00:16:29;1.38;;;1.27;;
56670;SDS011;42545;50.054;8.306;2023-06-14T00:18:57;2.28;;;1.67;;
56670;SDS011;42545;50.054;8.306;2023-06-14T00:21:24;2.25;;;1.70;;
56670;SDS011;42545;50.054;8.306;2023-06-14T00:23:53;1.60;;;1.48;;
56670;SDS011;42545;50.054;8.306;2023-06-14T00:26:20;2.25;;;1.75;;
56670;SDS011;42545;50.054;8.306;2023-06-14T00:28:46;2.58;;;1.80;;
56670;SDS011;42545;50.054;8.306;2023-06-14T00:31:15;1.50;;;1.40;;
56670;SDS011;42545;50.054;8.306;2023-06-14T00:33:41;1.75;;;1.52;;
56670;SDS011;42545;50.054;8.306;2023-06-14T00:36:08;1.73;;;1.63;;
56670;SDS011;42545;50.054;8.306;2023-06-14T00:38:34;2.13;;;1.60;;
56670;SDS011;42545;50.054;8.306;2023-06-14T00:41:03;2.40;;;2.20;;
56670;SDS011;42545;50.054;8.306;2023-06-14T00:43:30;2.80;;;2.30;;
56670;SDS011;42545;50.054;8.306;2023-06-14T00:45:56;2.38;;;2.13;;
56670;SDS011;42545;50.054;8.306;2023-06-14T00:48:25;2.95;;;2.55;;
56670;SDS011;42545;50.054;8.306;2023-06-14T00:50:51;3.25;;;2.58;;
56670;SDS011;42545;50.054;8.306;2023-06-14T00:53:18;3.45;;;2.70;;
56670;SDS011;42545;50.054;8.306;2023-06-14T00:55:48;3.15;;;2.50;;
56670;SDS011;42545;50.054;8.306;2023-06-14T00:58:14;3.08;;;2.47;;
56670;SDS011;42545;50.054;8.306;2023-06-14T01:00:41;4.22;;;2.65;;
56670;SDS011;42545;50.054;8.306;2023-06-14T01:03:09;3.15;;;2.80;;
56670;SDS011;42545;50.054;8.306;2023-06-14T01:05:40;3.53;;;2.47;;
56670;SDS011;42545;50.054;8.306;2023-06-14T01:08:13;2.60;;;2.20;;
56670;SDS011;42545;50.054;8.306;2023-06-14T01:10:51;4.22;;;2.42;;
56670;SDS011;42545;50.054;8.306;2023-06-14T01:13:25;3.53;;;2.80;;
56670;SDS011;42545;50.054;8.306;2023-06-14T01:15:55;3.53;;;2.50;;
56670;SDS011;42545;50.054;8.306;2023-06-14T01:18:22;3.35;;;2.67;;
56670;SDS011;42545;50.054;8.306;2023-06-14T01:20:52;3.15;;;2.50;;
56670;SDS011;42545;50.054;8.306;2023-06-14T01:23:22;3.80;;;2.80;;
56670;SDS011;42545;50.054;8.306;2023-06-14T01:25:50;3.65;;;2.35;;
56670;SDS011;42545;50.054;8.306;2023-06-14T01:28:18;2.53;;;2.28;;
56670;SDS011;42545;50.054;8.306;2023-06-14T01:30:46;3.28;;;2.50;;
56670;SDS011;42545;50.054;8.306;2023-06-14T01:33:18;3.33;;;2.47;;
56670;SDS011;42545;50.054;8.306;2023-06-14T01:35:46;2.30;;;1.90;;
56670;SDS011;42545;50.054;8.306;2023-06-14T01:38:15;3.22;;;2.15;;
56670;SDS011;42545;50.054;8.306;2023-06-14T01:40:45;2.80;;;2.10;;
56670;SDS011;42545;50.054;8.306;2023-06-14T01:43:15;3.00;;;2.30;;
56670;SDS011;42545;50.054;8.306;2023-06-14T01:45:42;3.65;;;2.20;;
56670;SDS011;42545;50.054;8.306;2023-06-14T01:48:12;3.95;;;2.30;;
56670;SDS011;42545;50.054;8.306;2023-06-14T01:50:38;2.38;;;2.00;;
56670;SDS011;42545;50.054;8.306;2023-06-14T01:53:07;2.45;;;2.17;;
56670;SDS011;42545;50.054;8.306;2023-06-14T01:55:34;2.75;;;2.10;;
56670;SDS011;42545;50.054;8.306;2023-06-14T01:58:05;2.28;;;1.80;;
56670;SDS011;42545;50.054;8.306;2023-06-14T02:00:31;2.43;;;2.10;;
56670;SDS011;42545;50.054;8.306;2023-06-14T02:02:58;2.45;;;2.00;;
56670;SDS011;42545;50.054;8.306;2023-06-14T02:05:24;2.55;;;1.90;;
56670;SDS011;42545;50.054;8.306;2023-06-14T02:07:51;2.22;;;1.63;;
56670;SDS011;42545;50.054;8.306;2023-06-14T02:10:18;3.83;;;2.35;;
56670;SDS011;42545;50.054;8.306;2023-06-14T02:12:46;2.38;;;1.98;;
56670;SDS011;42545;50.054;8.306;2023-06-14T02:15:14;2.38;;;2.00;;
56670;SDS011;42545;50.054;8.306;2023-06-14T02:17:44;3.53;;;2.10;;
56670;SDS011;42545;50.054;8.306;2023-06-14T02:20:12;2.30;;;2.00;;
56670;SDS011;42545;50.054;8.306;2023-06-14T02:22:39;2.75;;;2.05;;
56670;SDS011;42545;50.054;8.306;2023-06-14T02:25:08;2.47;;;2.10;;
56670;SDS011;42545;50.054;8.306;2023-06-14T02:27:35;2.80;;;2.05;;
56670;SDS011;42545;50.054;8.306;2023-06-14T02:30:02;3.35;;;2.00;;
56670;SDS011;42545;50.054;8.306;2023-06-14T02:32:31;2.38;;;2.00;;
56670;SDS011;42545;50.054;8.306;2023-06-14T02:34:59;2.88;;;2.30;;
56670;SDS011;42545;50.054;8.306;2023-06-14T02:37:26;2.95;;;2.13;;
56670;SDS011;42545;50.054;8.306;2023-06-14T02:39:53;2.13;;;1.88;;
56670;SDS011;42545;50.054;8.306;2023-06-14T02:42:22;2.92;;;1.58;;
56670;SDS011;42545;50.054;8.306;2023-06-14T02:44:49;2.80;;;2.08;;
56670;SDS011;42545;50.054;8.306;2023-06-14T02:47:16;1.98;;;1.70;;
56670;SDS011;42545;50.054;8.306;2023-06-14T02:49:45;1.88;;;1.67;;
56670;SDS011;42545;50.054;8.306;2023-06-14T02:52:12;1.95;;;1.60;;
56670;SDS011;42545;50.054;8.306;2023-06-14T02:54:39;1.90;;;1.52;;
56670;SDS011;42545;50.054;8.306;2023-06-14T02:57:06;1.75;;;1.50;;
56670;SDS011;42545;50.054;8.306;2023-06-14T02:59:33;1.98;;;1.60;;
56670;SDS011;42545;50.054;8.306;2023-06-14T03:02:00;2.40;;;1.70;;
56670;SDS011;42545;50.054;8.306;2023-06-14T03:04:28;1.85;;;1.58;;
56670;SDS011;42545;50.054;8.306;2023-06-14T03:06:59;2.17;;;1.98;;
56670;SDS011;42545;50.054;8.306;2023-06-14T03:09:27;1.65;;;1.50;;
56670;SDS011;42545;50.054;8.306;2023-06-14T03:11:54;2.60;;;2.05;;
56670;SDS011;42545;50.054;8.306;2023-06-14T03:14:21;2.47;;;1.90;;
56670;SDS011;42545;50.054;8.306;2023-06-14T03:16:47;1.92;;;1.48;;
56670;SDS011;42545;50.054;8.306;2023-06-14T03:19:15;1.77;;;1.50;;
56670;SDS011;42545;50.054;8.306;2023-06-14T03:21:42;2.38;;;1.50;;
56670;SDS011;42545;50.054;8.306;2023-06-14T03:24:11;2.83;;;1.75;;
56670;SDS011;42545;50.054;8.306;2023-06-14T03:26:37;1.95;;;1.75;;
56670;SDS011;42545;50.054;8.306;2023-06-14T03:29:04;2.42;;;1.92;;
56670;SDS011;42545;50.054;8.306;2023-06-14T03:31:30;2.22;;;1.88;;
56670;SDS011;42545;50.054;8.306;2023-06-14T03:33:58;2.78;;;2.22;;
56670;SDS011;42545;50.054;8.306;2023-06-14T03:36:25;3.35;;;2.38;;
56670;SDS011;42545;50.054;8.306;2023-06-14T03:38:52;2.55;;;2.10;;
56670;SDS011;42545;50.054;8.306;2023-06-14T03:41:21;3.33;;;2.10;;
56670;SDS011;42545;50.054;8.306;2023-06-14T03:43:47;3.13;;;2.17;;
56670;SDS011;42545;50.054;8.306;2023-06-14T03:46:14;2.70;;;2.17;;
56670;SDS011;42545;50.054;8.306;2023-06-14T03:48:40;3.60;;;2.45;;
56670;SDS011;42545;50.054;8.306;2023-06-14T03:51:07;2.63;;;2.10;;
56670;SDS011;42545;50.054;8.306;2023-06-14T03:53:33;2.67;;;2.35;;
56670;SDS011;42545;50.054;8.306;2023-06-14T03:56:01;3.45;;;2.35;;
56670;SDS011;42545;50.054;8.306;2023-06-14T03:58:29;3.13;;;2.30;;
56670;SDS011;42545;50.054;8.306;2023-06-14T04:00:56;3.08;;;2.63;;
56670;SDS011;42545;50.054;8.306;2023-06-14T04:03:22;3.13;;;2.65;;
56670;SDS011;42545;50.054;8.306;2023-06-14T04:05:54;2.97;;;2.30;;
56670;SDS011;42545;50.054;8.306;2023-06-14T04:08:24;5.40;;;2.88;;
56670;SDS011;42545;50.054;8.306;2023-06-14T04:10:51;2.83;;;2.47;;
56670;SDS011;42545;50.054;8.306;2023-06-14T04:13:18;3.38;;;2.42;;
56670;SDS011;42545;50.054;8.306;2023-06-14T04:15:46;2.88;;;2.35;;
56670;SDS011;42545;50.054;8.306;2023-06-14T04:18:12;4.32;;;2.30;;
56670;SDS011;42545;50.054;8.306;2023-06-14T04:20:39;3.85;;;2.55;;
56670;SDS011;42545;50.054;8.306;2023-06-14T04:23:11;3.30;;;2.47;;
56670;SDS011;42545;50.054;8.306;2023-06-14T04:25:39;3.17;;;2.55;;
56670;SDS011;42545;50.054;8.306;2023-06-14T04:28:10;3.00;;;2.50;;
56670;SDS011;42545;50.054;8.306;2023-06-14T04:30:39;2.83;;;2.33;;
56670;SDS011;42545;50.054;8.306;2023-06-14T04:33:07;3.90;;;2.75;;
56670;SDS011;42545;50.054;8.306;2023-06-14T04:35:34;3.15;;;2.42;;
56670;SDS011;42545;50.054;8.306;2023-06-14T04:38:02;3.60;;;2.60;;
56670;SDS011;42545;50.054;8.306;2023-06-14T04:40:30;3.20;;;2.58;;
56670;SDS011;42545;50.054;8.306;2023-06-14T04:42:56;4.13;;;2.92;;
56670;SDS011;42545;50.054;8.306;2023-06-14T04:45:26;3.47;;;2.93;;
56670;SDS011;42545;50.054;8.306;2023-06-14T04:47:58;3.80;;;2.88;;
56670;SDS011;42545;50.054;8.306;2023-06-14T04:50:26;3.83;;;3.22;;
56670;SDS011;42545;50.054;8.306;2023-06-14T04:52:54;2.97;;;2.65;;
56670;SDS011;42545;50.054;8.306;2023-06-14T04:55:21;3.75;;;2.60;;
56670;SDS011;42545;50.054;8.306;2023-06-14T04:57:49;4.07;;;2.85;;
56670;SDS011;42545;50.054;8.306;2023-06-14T05:00:18;3.05;;;2.53;;
56670;SDS011;42545;50.054;8.306;2023-06-14T05:02:45;2.75;;;2.30;;
56670;SDS011;42545;50.054;8.306;2023-06-14T05:05:14;3.13;;;2.78;;
56670;SDS011;42545;50.054;8.306;2023-06-14T05:07:42;3.08;;;2.55;;
56670;SDS011;42545;50.054;8.306;2023-06-14T05:10:10;5.15;;;2.38;;
56670;SDS011;42545;50.054;8.306;2023-06-14T05:12:36;3.47;;;2.65;;
56670;SDS011;42545;50.054;8.306;2023-06-14T05:15:03;2.70;;;2.45;;
56670;SDS011;42545;50.054;8.306;2023-06-14T05:17:31;3.38;;;2.72;;
56670;SDS011;42545;50.054;8.306;2023-06-14T05:19:57;3.42;;;2.47;;
56670;SDS011;42545;50.054;8.306;2023-06-14T05:22:24;3.35;;;2.58;;
56670;SDS011;42545;50.054;8.306;2023-06-14T05:24:54;2.60;;;2.10;;
56670;SDS011;42545;50.054;8.306;2023-06-14T05:27:21;2.95;;;2.63;;
56670;SDS011;42545;50.054;8.306;2023-06-14T05:29:49;3.08;;;2.50;;
56670;SDS011;42545;50.054;8.306;2023-06-14T05:32:16;4.55;;;2.45;;
56670;SDS011;42545;50.054;8.306;2023-06-14T05:34:43;3.67;;;2.30;;
56670;SDS011;42545;50.054;8.306;2023-06-14T05:37:10;3.13;;;2.58;;
56670;SDS011;42545;50.054;8.306;2023-06-14T05:39:39;3.45;;;2.70;;
56670;SDS011;42545;50.054;8.306;2023-06-14T05:42:07;3.75;;;2.65;;
56670;SDS011;42545;50.054;8.306;2023-06-14T05:44:34;4.03;;;2.40;;
56670;SDS011;42545;50.054;8.306;2023-06-14T05:47:01;3.17;;;2.40;;
56670;SDS011;42545;50.054;8.306;2023-06-14T05:49:27;4.57;;;2.58;;
56670;SDS011;42545;50.054;8.306;2023-06-14T05:51:54;3.03;;;2.30;;
56670;SDS011;42545;50.054;8.306;2023-06-14T05:54:20;2.63;;;2.38;;
56670;SDS011;42545;50.054;8.306;2023-06-14T05:56:47;3.65;;;2.53;;
56670;SDS011;42545;50.054;8.306;2023-06-14T05:59:15;3.38;;;2.67;;
56670;SDS011;42545;50.054;8.306;2023-06-14T06:01:42;3.53;;;2.50;;
56670;SDS011;42545;50.054;8.306;2023-06-14T06:04:08;3.47;;;2.17;;
56670;SDS011;42545;50.054;8.306;2023-06-14T06:06:35;2.97;;;2.35;;
56670;SDS011;42545;50.054;8.306;2023-06-14T06:09:02;3.88;;;2.20;;
56670;SDS011;42545;50.054;8.306;2023-06-14T06:11:29;2.80;;;2.30;;
56670;SDS011;42545;50.054;8.306;2023-06-14T06:13:56;2.25;;;2.03;;
56670;SDS011;42545;50.054;8.306;2023-06-14T06:16:25;3.70;;;2.17;;
56670;SDS011;42545;50.054;8.306;2023-06-14T06:18:52;3.22;;;2.40;;
56670;SDS011;42545;50.054;8.306;2023-06-14T06:21:19;2.42;;;2.17;;
56670;SDS011;42545;50.054;8.306;2023-06-14T06:23:46;4.20;;;2.85;;
56670;SDS011;42545;50.054;8.306;2023-06-14T06:26:12;8.27;;;3.05;;
56670;SDS011;42545;50.054;8.306;2023-06-14T06:28:40;6.10;;;2.80;;
56670;SDS011;42545;50.054;8.306;2023-06-14T06:31:06;4.78;;;2.90;;
56670;SDS011;42545;50.054;8.306;2023-06-14T06:33:36;6.28;;;2.97;;
56670;SDS011;42545;50.054;8.306;2023-06-14T06:36:04;5.15;;;2.70;;
56670;SDS011;42545;50.054;8.306;2023-06-14T06:38:32;8.13;;;3.05;;
56670;SDS011;42545;50.054;8.306;2023-06-14T06:41:01;3.90;;;2.58;;
56670;SDS011;42545;50.054;8.306;2023-06-14T06:43:29;4.25;;;3.03;;
56670;SDS011;42545;50.054;8.306;2023-06-14T06:45:55;4.18;;;2.85;;
56670;SDS011;42545;50.054;8.306;2023-06-14T06:48:22;7.13;;;3.13;;
56670;SDS011;42545;50.054;8.306;2023-06-14T06:50:50;2.95;;;2.38;;
56670;SDS011;42545;50.054;8.306;2023-06-14T06:53:17;3.75;;;2.50;;
56670;SDS011;42545;50.054;8.306;2023-06-14T06:55:44;4.68;;;2.78;;
56670;SDS011;42545;50.054;8.306;2023-06-14T06:58:11;6.72;;;2.65;;
56670;SDS011;42545;50.054;8.306;2023-06-14T07:00:38;3.22;;;2.50;;
56670;SDS011;42545;50.054;8.306;2023-06-14T07:03:05;3.78;;;2.63;;
56670;SDS011;42545;50.054;8.306;2023-06-14T07:05:33;3.65;;;3.00;;
56670;SDS011;42545;50.054;8.306;2023-06-14T07:08:01;4.57;;;2.42;;
56670;SDS011;42545;50.054;8.306;2023-06-14T07:10:29;3.58;;;1.98;;
56670;SDS011;42545;50.054;8.306;2023-06-14T07:12:55;3.22;;;2.30;;
56670;SDS011;42545;50.054;8.306;2023-06-14T07:15:22;4.55;;;2.30;;
56670;SDS011;42545;50.054;8.306;2023-06-14T07:17:49;2.90;;;2.10;;
56670;SDS011;42545;50.054;8.306;2023-06-14T07:20:18;4.10;;;2.20;;
56670;SDS011;42545;50.054;8.306;2023-06-14T07:22:46;4.25;;;2.60;;
56670;SDS011;42545;50.054;8.306;2023-06-14T07:25:14;2.55;;;2.00;;
56670;SDS011;42545;50.054;8.306;2023-06-14T07:27:41;3.08;;;2.08;;
56670;SDS011;42545;50.054;8.306;2023-06-14T07:30:08;3.17;;;2.20;;
56670;SDS011;42545;50.054;8.306;2023-06-14T07:32:35;3.20;;;2.47;;
56670;SDS011;42545;50.054;8.306;2023-06-14T07:35:02;2.33;;;1.80;;
56670;SDS011;42545;50.054;8.306;2023-06-14T07:37:30;3.47;;;2.10;;
56670;SDS011;42545;50.054;8.306;2023-06-14T07:39:57;3.35;;;2.03;;
56670;SDS011;42545;50.054;8.306;2023-06-14T07:42:25;4.15;;;2.20;;
56670;SDS011;42545;50.054;8.306;2023-06-14T07:44:52;2.85;;;2.13;;
56670;SDS011;42545;50.054;8.306;2023-06-14T07:47:18;3.05;;;2.00;;
56670;SDS011;42545;50.054;8.306;2023-06-14T07:49:47;2.28;;;2.00;;
56670;SDS011;42545;50.054;8.306;2023-06-14T07:52:13;3.22;;;2.13;;
56670;SDS011;42545;50.054;8.306;2023-06-14T07:54:41;2.83;;;2.10;;
56670;SDS011;42545;50.054;8.306;2023-06-14T07:57:07;2.97;;;1.88;;
56670;SDS011;42545;50.054;8.306;2023-06-14T07:59:35;3.03;;;1.98;;
56670;SDS011;42545;50.054;8.306;2023-06-14T08:02:02;3.33;;;2.20;;
56670;SDS011;42545;50.054;8.306;2023-06-14T08:04:28;2.42;;;2.00;;
56670;SDS011;42545;50.054;8.306;2023-06-14T08:06:56;2.38;;;1.75;;
56670;SDS011;42545;50.054;8.306;2023-06-14T08:09:22;2.25;;;2.03;;
56670;SDS011;42545;50.054;8.306;2023-06-14T08:11:50;3.03;;;1.83;;
56670;SDS011;42545;50.054;8.306;2023-06-14T08:14:17;2.35;;;2.00;;
56670;SDS011;42545;50.054;8.306;2023-06-14T08:16:45;4.00;;;2.10;;
56670;SDS011;42545;50.054;8.306;2023-06-14T08:19:12;2.15;;;1.92;;
56670;SDS011;42545;50.054;8.306;2023-06-14T08:21:39;3.38;;;1.98;;
56670;SDS011;42545;50.054;8.306;2023-06-14T08:24:05;2.58;;;2.20;;
56670;SDS011;42545;50.054;8.306;2023-06-14T08:26:32;2.60;;;1.90;;
56670;SDS011;42545;50.054;8.306;2023-06-14T08:28:59;3.50;;;2.13;;
56670;SDS011;42545;50.054;8.306;2023-06-14T08:31:26;6.43;;;2.10;;
56670;SDS011;42545;50.054;8.306;2023-06-14T08:33:55;3.22;;;2.13;;
56670;SDS011;42545;50.054;8.306;2023-06-14T08:36:21;2.17;;;1.77;;
56670;SDS011;42545;50.054;8.306;2023-06-14T08:38:48;4.03;;;1.65;;
56670;SDS011;42545;50.054;8.306;2023-06-14T08:41:20;2.35;;;1.95;;
56670;SDS011;42545;50.054;8.306;2023-06-14T08:43:49;2.50;;;1.70;;
56670;SDS011;42545;50.054;8.306;2023-06-14T08:46:17;2.08;;;1.60;;
56670;SDS011;42545;50.054;8.306;2023-06-14T08:48:47;2.78;;;1.60;;
56670;SDS011;42545;50.054;8.306;2023-06-14T08:53:49;2.03;;;1.35;;
56670;SDS011;42545;50.054;8.306;2023-06-14T08:56:22;1.92;;;1.70;;
56670;SDS011;42545;50.054;8.306;2023-06-14T08:58:52;2.67;;;1.95;;
56670;SDS011;42545;50.054;8.306;2023-06-14T09:01:20;2.70;;;1.60;;
56670;SDS011;42545;50.054;8.306;2023-06-14T09:03:48;1.98;;;1.70;;
56670;SDS011;42545;50.054;8.306;2023-06-14T09:06:16;2.50;;;1.60;;
56670;SDS011;42545;50.054;8.306;2023-06-14T09:08:46;3.33;;;1.67;;
56670;SDS011;42545;50.054;8.306;2023-06-14T09:11:14;2.83;;;1.80;;
56670;SDS011;42545;50.054;8.306;2023-06-14T09:13:43;3.38;;;1.75;;
56670;SDS011;42545;50.054;8.306;2023-06-14T09:16:11;2.58;;;1.55;;
56670;SDS011;42545;50.054;8.306;2023-06-14T09:18:39;1.60;;;1.50;;
56670;SDS011;42545;50.054;8.306;2023-06-14T09:21:09;4.93;;;1.60;;
56670;SDS011;42545;50.054;8.306;2023-06-14T09:23:36;3.85;;;1.70;;
56670;SDS011;42545;50.054;8.306;2023-06-14T09:26:09;2.78;;;1.50;;
56670;SDS011;42545;50.054;8.306;2023-06-14T09:28:40;9.63;;;2.15;;
56670;SDS011;42545;50.054;8.306;2023-06-14T09:31:08;2.50;;;1.30;;
56670;SDS011;42545;50.054;8.306;2023-06-14T09:33:36;35.97;;;5.68;;
56670;SDS011;42545;50.054;8.306;2023-06-14T09:36:03;9.27;;;3.38;;
56670;SDS011;42545;50.054;8.306;2023-06-14T09:38:30;5.43;;;2.25;;
56670;SDS011;42545;50.054;8.306;2023-06-14T09:41:00;3.58;;;2.10;;
56670;SDS011;42545;50.054;8.306;2023-06-14T09:46:01;2.92;;;1.75;;
56670;SDS011;42545;50.054;8.306;2023-06-14T09:48:32;2.20;;;1.60;;
56670;SDS011;42545;50.054;8.306;2023-06-14T09:50:59;2.10;;;1.67;;
56670;SDS011;42545;50.054;8.306;2023-06-14T09:53:27;4.68;;;1.88;;
56670;SDS011;42545;50.054;8.306;2023-06-14T09:55:55;2.28;;;1.80;;
56670;SDS011;42545;50.054;8.306;2023-06-14T09:58:25;3.65;;;2.03;;
56670;SDS011;42545;50.054;8.306;2023-06-14T10:00:56;2.03;;;1.50;;
56670;SDS011;42545;50.054;8.306;2023-06-14T10:03:24;21.38;;;4.50;;
56670;SDS011;42545;50.054;8.306;2023-06-14T10:05:55;2.08;;;1.77;;
56670;SDS011;42545;50.054;8.306;2023-06-14T10:08:27;2.80;;;1.75;;
56670;SDS011;42545;50.054;8.306;2023-06-14T10:10:58;5.25;;;1.70;;
56670;SDS011;42545;50.054;8.306;2023-06-14T10:13:25;3.05;;;1.63;;
56670;SDS011;42545;50.054;8.306;2023-06-14T10:15:58;1.75;;;1.63;;
56670;SDS011;42545;50.054;8.306;2023-06-14T10:18:33;3.47;;;1.63;;
56670;SDS011;42545;50.054;8.306;2023-06-14T10:21:13;3.95;;;1.75;;
56670;SDS011;42545;50.054;8.306;2023-06-14T10:23:43;2.83;;;1.30;;
56670;SDS011;42545;50.054;8.306;2023-06-14T10:26:17;3.73;;;1.63;;
56670;SDS011;42545;50.054;8.306;2023-06-14T10:28:54;2.67;;;1.50;;
56670;SDS011;42545;50.054;8.306;2023-06-14T10:31:32;1.75;;;1.52;;
56670;SDS011;42545;50.054;8.306;2023-06-14T10:34:06;2.17;;;1.20;;
56670;SDS011;42545;50.054;8.306;2023-06-14T10:36:33;4.47;;;1.55;;
56670;SDS011;42545;50.054;8.306;2023-06-14T10:39:01;1.42;;;1.30;;
56670;SDS011;42545;50.054;8.306;2023-06-14T10:41:34;1.30;;;1.20;;
56670;SDS011;42545;50.054;8.306;2023-06-14T10:46:59;1.83;;;1.40;;
56670;SDS011;42545;50.054;8.306;2023-06-14T10:49:37;2.10;;;1.40;;
56670;SDS011;42545;50.054;8.306;2023-06-14T10:52:09;3.42;;;1.90;;
56670;SDS011;42545;50.054;8.306;2023-06-14T10:54:58;1.70;;;1.48;;
56670;SDS011;42545;50.054;8.306;2023-06-14T10:57:36;2.03;;;1.63;;
56670;SDS011;42545;50.054;8.306;2023-06-14T11:00:04;2.20;;;1.60;;
56670;SDS011;42545;50.054;8.306;2023-06-14T11:02:49;2.97;;;1.58;;
56670;SDS011;42545;50.054;8.306;2023-06-14T11:05:23;3.03;;;1.90;;
56670;SDS011;42545;50.054;8.306;2023-06-14T11:07:58;2.45;;;1.50;;
56670;SDS011;42545;50.054;8.306;2023-06-14T11:10:39;2.95;;;1.80;;
56670;SDS011;42545;50.054;8.306;2023-06-14T11:13:07;1.77;;;1.67;;
56670;SDS011;42545;50.054;8.306;2023-06-14T11:15:35;1.90;;;1.60;;
56670;SDS011;42545;50.054;8.306;2023-06-14T11:18:08;4.05;;;1.75;;
56670;SDS011;42545;50.054;8.306;2023-06-14T11:20:35;4.53;;;1.60;;
56670;SDS011;42545;50.054;8.306;2023-06-14T11:23:03;2.15;;;1.63;;
56670;SDS011;42545;50.054;8.306;2023-06-14T11:25:30;2.08;;;1.58;;
56670;SDS011;42545;50.054;8.306;2023-06-14T11:27:57;2.35;;;1.40;;
56670;SDS011;42545;50.054;8.306;2023-06-14T11:30:25;1.70;;;1.40;;
56670;SDS011;42545;50.054;8.306;2023-06-14T11:32:52;1.67;;;1.40;;
56670;SDS011;42545;50.054;8.306;2023-06-14T11:35:22;2.40;;;1.75;;
56670;SDS011;42545;50.054;8.306;2023-06-14T11:37:52;2.10;;;1.70;;
56670;SDS011;42545;50.054;8.306;2023-06-14T11:40:20;1.70;;;1.60;;
56670;SDS011;42545;50.054;8.306;2023-06-14T11:42:49;1.70;;;1.50;;
56670;SDS011;42545;50.054;8.306;2023-06-14T11:45:17;2.13;;;1.70;;
56670;SDS011;42545;50.054;8.306;2023-06-14T11:47:44;2.15;;;1.80;;
56670;SDS011;42545;50.054;8.306;2023-06-14T11:50:11;1.80;;;1.60;;
56670;SDS011;42545;50.054;8.306;2023-06-14T11:52:39;1.70;;;1.55;;
56670;SDS011;42545;50.054;8.306;2023-06-14T11:55:06;2.47;;;1.70;;
56670;SDS011;42545;50.054;8.306;2023-06-14T11:57:34;2.20;;;1.80;;
56670;SDS011;42545;50.054;8.306;2023-06-14T12:00:02;1.80;;;1.70;;
56670;SDS011;42545;50.054;8.306;2023-06-14T12:02:32;1.45;;;1.35;;
56670;SDS011;42545;50.054;8.306;2023-06-14T12:05:03;1.92;;;1.67;;
56670;SDS011;42545;50.054;8.306;2023-06-14T12:07:32;1.63;;;1.52;;
56670;SDS011;42545;50.054;8.306;2023-06-14T12:10:07;2.92;;;2.10;;
56670;SDS011;42545;50.054;8.306;2023-06-14T12:12:36;2.38;;;1.88;;
56670;SDS011;42545;50.054;8.306;2023-06-14T12:15:03;2.20;;;1.92;;
56670;SDS011;42545;50.054;8.306;2023-06-14T12:17:32;2.42;;;1.80;;
56670;SDS011;42545;50.054;8.306;2023-06-14T12:19:59;3.88;;;1.90;;
56670;SDS011;42545;50.054;8.306;2023-06-14T12:22:33;2.30;;;2.10;;
56670;SDS011;42545;50.054;8.306;2023-06-14T12:24:59;1.73;;;1.60;;
56670;SDS011;42545;50.054;8.306;2023-06-14T12:27:29;3.08;;;1.60;;
56670;SDS011;42545;50.054;8.306;2023-06-14T12:29:59;1.70;;;1.60;;
56670;SDS011;42545;50.054;8.306;2023-06-14T12:32:28;1.90;;;1.70;;
56670;SDS011;42545;50.054;8.306;2023-06-14T12:34:55;2.00;;;1.80;;
56670;SDS011;42545;50.054;8.306;2023-06-14T12:37:21;2.13;;;1.92;;
56670;SDS011;42545;50.054;8.306;2023-06-14T12:39:48;2.85;;;1.70;;
56670;SDS011;42545;50.054;8.306;2023-06-14T12:42:15;3.10;;;1.77;;
56670;SDS011;42545;50.054;8.306;2023-06-14T12:44:44;2.60;;;1.90;;
56670;SDS011;42545;50.054;8.306;2023-06-14T12:47:10;2.58;;;1.85;;
56670;SDS011;42545;50.054;8.306;2023-06-14T12:49:38;3.15;;;1.90;;
56670;SDS011;42545;50.054;8.306;2023-06-14T12:52:07;2.00;;;1.60;;
56670;SDS011;42545;50.054;8.306;2023-06-14T12:54:34;1.83;;;1.65;;
56670;SDS011;42545;50.054;8.306;2023-06-14T12:57:01;1.77;;;1.50;;
56670;SDS011;42545;50.054;8.306;2023-06-14T12:59:28;3.08;;;1.80;;
56670;SDS011;42545;50.054;8.306;2023-06-14T13:02:00;2.03;;;1.77;;
56670;SDS011;42545;50.054;8.306;2023-06-14T13:04:36;2.03;;;1.60;;
56670;SDS011;42545;50.054;8.306;2023-06-14T13:07:04;1.90;;;1.70;;
56670;SDS011;42545;50.054;8.306;2023-06-14T13:09:35;2.25;;;1.50;;
56670;SDS011;42545;50.054;8.306;2023-06-14T13:12:02;3.38;;;2.03;;
56670;SDS011;42545;50.054;8.306;2023-06-14T13:14:30;1.90;;;1.60;;
56670;SDS011;42545;50.054;8.306;2023-06-14T13:16:57;1.67;;;1.42;;
56670;SDS011;42545;50.054;8.306;2023-06-14T13:19:25;2.95;;;2.10;;
56670;SDS011;42545;50.054;8.306;2023-06-14T13:21:52;1.70;;;1.60;;
56670;SDS011;42545;50.054;8.306;2023-06-14T13:24:18;4.47;;;1.80;;
56670;SDS011;42545;50.054;8.306;2023-06-14T13:26:45;2.38;;;1.90;;
56670;SDS011;42545;50.054;8.306;2023-06-14T13:29:12;2.22;;;1.83;;
56670;SDS011;42545;50.054;8.306;2023-06-14T13:31:39;2.20;;;2.00;;
56670;SDS011;42545;50.054;8.306;2023-06-14T13:34:05;2.13;;;1.80;;
56670;SDS011;42545;50.054;8.306;2023-06-14T13:36:34;2.75;;;1.80;;
56670;SDS011;42545;50.054;8.306;2023-06-14T13:39:00;1.70;;;1.52;;
56670;SDS011;42545;50.054;8.306;2023-06-14T13:41:29;2.00;;;1.70;;
56670;SDS011;42545;50.054;8.306;2023-06-14T13:43:58;2.05;;;1.70;;
56670;SDS011;42545;50.054;8.306;2023-06-14T13:46:25;2.30;;;1.67;;
56670;SDS011;42545;50.054;8.306;2023-06-14T13:48:51;1.67;;;1.58;;
56670;SDS011;42545;50.054;8.306;2023-06-14T13:51:19;2.08;;;1.88;;
56670;SDS011;42545;50.054;8.306;2023-06-14T13:53:47;1.65;;;1.55;;
56670;SDS011;42545;50.054;8.306;2023-06-14T13:56:14;1.83;;;1.63;;
56670;SDS011;42545;50.054;8.306;2023-06-14T13:58:41;2.20;;;2.00;;
56670;SDS011;42545;50.054;8.306;2023-06-14T14:01:07;2.72;;;1.88;;
56670;SDS011;42545;50.054;8.306;2023-06-14T14:03:35;2.20;;;2.00;;
56670;SDS011;42545;50.054;8.306;2023-06-14T14:06:02;2.22;;;1.77;;
56670;SDS011;42545;50.054;8.306;2023-06-14T14:08:30;2.23;;;2.03;;
56670;SDS011;42545;50.054;8.306;2023-06-14T14:10:59;2.15;;;1.95;;
56670;SDS011;42545;50.054;8.306;2023-06-14T14:13:25;2.25;;;1.88;;
56670;SDS011;42545;50.054;8.306;2023-06-14T14:15:52;3.22;;;2.10;;
56670;SDS011;42545;50.054;8.306;2023-06-14T14:18:19;3.13;;;1.92;;
56670;SDS011;42545;50.054;8.306;2023-06-14T14:20:46;2.17;;;1.80;;
56670;SDS011;42545;50.054;8.306;2023-06-14T14:23:13;2.15;;;1.80;;
56670;SDS011;42545;50.054;8.306;2023-06-14T14:25:40;2.55;;;1.90;;
56670;SDS011;42545;50.054;8.306;2023-06-14T14:28:08;2.00;;;1.70;;
56670;SDS011;42545;50.054;8.306;2023-06-14T14:30:36;2.58;;;1.85;;
56670;SDS011;42545;50.054;8.306;2023-06-14T14:33:04;2.17;;;1.67;;
56670;SDS011;42545;50.054;8.306;2023-06-14T14:35:31;1.90;;;1.63;;
56670;SDS011;42545;50.054;8.306;2023-06-14T14:37:58;2.33;;;1.90;;
56670;SDS011;42545;50.054;8.306;2023-06-14T14:40:24;3.05;;;1.80;;
56670;SDS011;42545;50.054;8.306;2023-06-14T14:42:51;2.65;;;1.80;;
56670;SDS011;42545;50.054;8.306;2023-06-14T14:45:21;2.20;;;1.90;;
56670;SDS011;42545;50.054;8.306;2023-06-14T14:50:14;2.17;;;1.70;;
56670;SDS011;42545;50.054;8.306;2023-06-14T14:52:41;2.17;;;1.60;;
56670;SDS011;42545;50.054;8.306;2023-06-14T14:55:08;1.80;;;1.60;;
56670;SDS011;42545;50.054;8.306;2023-06-14T14:57:35;3.75;;;1.60;;
56670;SDS011;42545;50.054;8.306;2023-06-14T15:00:03;1.90;;;1.77;;
56670;SDS011;42545;50.054;8.306;2023-06-14T15:02:32;2.88;;;1.80;;
56670;SDS011;42545;50.054;8.306;2023-06-14T15:04:58;1.77;;;1.40;;